Superferry II — SWKV — position and weather

sailwx.info

Track history (hours):
 
Tides and Currents Weather Stations Pressure Air Temp Water Temp Dewpoint Dewpoint Depression Visibility Wind Speed Wind Dir Waves Ship Positions

Superferry II

Last reported at 2018-Jun-19 11:35 UTC. Time now 2018-Jun-19 16:22 UTC.
Position N 37°03' E 025°03'.

Length 122 m; draft 4.7 m.

Type: Ship (hazmat cat D). MMSI: 237001000.

Date/timePositionNaut miles runAvg speedWind from/ knotsBaromVisibWave heightAir tempDewpointWater temp
2018-Jun-19 11:35N 37°03' E 025°03'120.8
2018-Jun-19 11:30N 37°03' E 025°04'3 6.8
2018-Jun-19 11:00N 37°05' E 025°08'1020.0
2018-Jun-19 10:30N 37°15' E 025°12'1020.3
2018-Jun-19 10:00N 37°24' E 025°17'4 8.4
2018-Jun-19 09:30N 37°28' E 025°19'714.5
2018-Jun-19 09:00N 37°31' E 025°11'4 8.4
2018-Jun-19 08:31N 37°33' E 025°07'5816.5
2018-Jun-19 05:01N 38°01' E 024°03'2 0.2
2018-Jun-18 19:04N 38°01' E 024°01'113.4
2018-Jun-18 19:00N 38°01' E 024°02'5216.9
2018-Jun-18 15:54N 37°37' E 025°01'819.9
2018-Jun-18 15:31N 37°32' E 025°09'4 8.4
2018-Jun-18 15:00N 37°30' E 025°13'511.0
2018-Jun-18 14:30N 37°28' E 025°19'816.0
2018-Jun-18 14:00N 37°20' E 025°16'1020.0
2018-Jun-18 13:30N 37°11' E 025°10'710.1
2018-Jun-18 12:46N 37°05' E 025°07'4 0.1
2018-Jun-17 11:35N 37°02' E 025°03'120.3
2018-Jun-17 11:31N 37°03' E 025°04'4 7.3
2018-Jun-17 10:57N 37°06' E 025°08'919.9
2018-Jun-17 10:30N 37°14' E 025°12'1020.0
2018-Jun-17 10:00N 37°24' E 025°17'5 9.2
2018-Jun-17 09:30N 37°28' E 025°19'612.9
2018-Jun-17 09:01N 37°30' E 025°12'3 5.4
2018-Jun-17 08:30N 37°32' E 025°09'1019.5
2018-Jun-17 08:00N 37°38' E 024°59'52 4.1
2018-Jun-16 19:22N 38°01' E 024°01'718.4
2018-Jun-16 19:00N 37°59' E 024°09'4516.4
2018-Jun-16 16:15N 37°38' E 024°59'519.9
2018-Jun-16 16:00N 37°35' E 025°04'511.0
2018-Jun-16 15:30N 37°32' E 025°10'917.4
2018-Jun-16 15:00N 37°28' E 025°19'4 7.2
2018-Jun-16 14:30N 37°25' E 025°17'1020.1
2018-Jun-16 14:00N 37°15' E 025°13'1212.8
2018-Jun-16 13:05N 37°05' E 025°06'119.8
2018-Jun-16 13:01N 37°04' E 025°05'2 0.1
2018-Jun-15 11:47N 37°03' E 025°03'5 7.8
2018-Jun-15 11:08N 37°06' E 025°08'518.2
2018-Jun-15 10:51N 37°11' E 025°10'618.4
2018-Jun-15 10:30N 37°16' E 025°13'918.6
2018-Jun-15 10:00N 37°25' E 025°17'3 6.3
2018-Jun-15 09:30N 37°28' E 025°19'816.9
2018-Jun-15 09:00N 37°32' E 025°10'5 9.7
2018-Jun-15 08:30N 37°34' E 025°05'1419.8
2018-Jun-15 07:48N 37°44' E 024°52'44 3.5
2018-Jun-14 19:10N 38°01' E 024°01'316.4
2018-Jun-14 19:00N 38°01' E 024°04'4916.6
2018-Jun-14 16:04N 37°38' E 024°59'120.0
2018-Jun-14 16:00N 37°37' E 025°00'918.0
2018-Jun-14 15:30N 37°32' E 025°09'713.4
2018-Jun-14 15:00N 37°29' E 025°17'2 4.9
2018-Jun-14 14:30N 37°28' E 025°19'816.5
2018-Jun-14 14:00N 37°20' E 025°16'1120.2
2018-Jun-14 13:29N 37°11' E 025°10'7 9.6
2018-Jun-14 12:48N 37°05' E 025°06'4 0.2
2018-Jun-13 11:45N 37°03' E 025°02'6 9.0
2018-Jun-13 11:05N 37°07' E 025°08'519.5
2018-Jun-13 10:48N 37°12' E 025°11'620.0
2018-Jun-13 10:30N 37°17' E 025°14'1020.1
2018-Jun-13 10:00N 37°27' E 025°18'2 3.7
2018-Jun-13 09:31N 37°28' E 025°19'611.8
2018-Jun-13 08:59N 37°30' E 025°12'510.1
2018-Jun-13 08:30N 37°33' E 025°07'60 4.5
2018-Jun-12 19:08N 38°01' E 024°01'215.8
2018-Jun-12 19:00N 38°01' E 024°03'1220.2
2018-Jun-12 18:25N 37°57' E 024°18'4716.1
2018-Jun-12 15:32N 37°33' E 025°08'020.2
2018-Jun-12 15:30N 37°32' E 025°08'611.5
2018-Jun-12 15:01N 37°29' E 025°14'4 8.6
2018-Jun-12 14:30N 37°28' E 025°19'816.1
2018-Jun-12 14:00N 37°20' E 025°16'1420.1
2018-Jun-12 13:19N 37°08' E 025°09'3 7.2
2018-Jun-12 12:50N 37°05' E 025°06'4 0.2
2018-Jun-11 12:01N 37°03' E 025°02'5 7.6
2018-Jun-11 11:19N 37°06' E 025°07'618.0
2018-Jun-11 10:58N 37°11' E 025°11'817.9
2018-Jun-11 10:31N 37°19' E 025°15'917.8
2018-Jun-11 10:00N 37°27' E 025°19'1 2.9
2018-Jun-11 09:30N 37°28' E 025°17'714.7
2018-Jun-11 09:00N 37°32' E 025°09'510.4
2018-Jun-11 08:30N 37°35' E 025°04'1218.0
2018-Jun-11 07:50N 37°43' E 024°53'45 3.9
2018-Jun-10 20:23N 38°01' E 024°01'718.3
2018-Jun-10 20:00N 37°60' E 024°09'4711.6
2018-Jun-10 15:57N 37°37' E 025°01'817.6
2018-Jun-10 15:30N 37°32' E 025°09'510.0
2018-Jun-10 15:00N 37°29' E 025°15'4 7.6
2018-Jun-10 14:31N 37°28' E 025°19'2219.6
2018-Jun-10 13:24N 37°08' E 025°08'4 6.5
2018-Jun-10 12:51N 37°05' E 025°07'4 0.2
2018-Jun-09 12:04N 37°03' E 025°02'117.7
2018-Jun-09 12:00N 37°03' E 025°03'  
Track history (hours):
 
Tides and Currents Weather Stations Pressure Air Temp Water Temp Dewpoint Dewpoint Depression Visibility Wind Speed Wind Dir Waves Ship Positions

Superferry II

Last reported at 2018-Jun-19 11:35 UTC. Time now 2018-Jun-19 16:22 UTC.
Position N 37°03' E 025°03'.

Length 122 m; draft 4.7 m.

Type: Ship (hazmat cat D). MMSI: 237001000.

Date/timePositionNaut miles runAvg speedWind from/ knotsBaromVisibWave heightAir tempDewpointWater temp
2018-Jun-19 11:35N 37°03' E 025°03'120.8
2018-Jun-19 11:30N 37°03' E 025°04'3 6.8
2018-Jun-19 11:00N 37°05' E 025°08'1020.0
2018-Jun-19 10:30N 37°15' E 025°12'1020.3
2018-Jun-19 10:00N 37°24' E 025°17'4 8.4
2018-Jun-19 09:30N 37°28' E 025°19'714.5
2018-Jun-19 09:00N 37°31' E 025°11'4 8.4
2018-Jun-19 08:31N 37°33' E 025°07'5816.5
2018-Jun-19 05:01N 38°01' E 024°03'2 0.2
2018-Jun-18 19:04N 38°01' E 024°01'113.4
2018-Jun-18 19:00N 38°01' E 024°02'5216.9
2018-Jun-18 15:54N 37°37' E 025°01'819.9
2018-Jun-18 15:31N 37°32' E 025°09'4 8.4
2018-Jun-18 15:00N 37°30' E 025°13'511.0
2018-Jun-18 14:30N 37°28' E 025°19'816.0
2018-Jun-18 14:00N 37°20' E 025°16'1020.0
2018-Jun-18 13:30N 37°11' E 025°10'710.1
2018-Jun-18 12:46N 37°05' E 025°07'4 0.1
2018-Jun-17 11:35N 37°02' E 025°03'120.3
2018-Jun-17 11:31N 37°03' E 025°04'4 7.3
2018-Jun-17 10:57N 37°06' E 025°08'919.9
2018-Jun-17 10:30N 37°14' E 025°12'1020.0
2018-Jun-17 10:00N 37°24' E 025°17'5 9.2
2018-Jun-17 09:30N 37°28' E 025°19'612.9
2018-Jun-17 09:01N 37°30' E 025°12'3 5.4
2018-Jun-17 08:30N 37°32' E 025°09'1019.5
2018-Jun-17 08:00N 37°38' E 024°59'52 4.1
2018-Jun-16 19:22N 38°01' E 024°01'718.4
2018-Jun-16 19:00N 37°59' E 024°09'4516.4
2018-Jun-16 16:15N 37°38' E 024°59'519.9
2018-Jun-16 16:00N 37°35' E 025°04'511.0
2018-Jun-16 15:30N 37°32' E 025°10'917.4
2018-Jun-16 15:00N 37°28' E 025°19'4 7.2
2018-Jun-16 14:30N 37°25' E 025°17'1020.1
2018-Jun-16 14:00N 37°15' E 025°13'1212.8
2018-Jun-16 13:05N 37°05' E 025°06'119.8
2018-Jun-16 13:01N 37°04' E 025°05'2 0.1
2018-Jun-15 11:47N 37°03' E 025°03'5 7.8
2018-Jun-15 11:08N 37°06' E 025°08'518.2
2018-Jun-15 10:51N 37°11' E 025°10'618.4
2018-Jun-15 10:30N 37°16' E 025°13'918.6
2018-Jun-15 10:00N 37°25' E 025°17'3 6.3
2018-Jun-15 09:30N 37°28' E 025°19'816.9
2018-Jun-15 09:00N 37°32' E 025°10'5 9.7
2018-Jun-15 08:30N 37°34' E 025°05'1419.8
2018-Jun-15 07:48N 37°44' E 024°52'44 3.5
2018-Jun-14 19:10N 38°01' E 024°01'316.4
2018-Jun-14 19:00N 38°01' E 024°04'4916.6
2018-Jun-14 16:04N 37°38' E 024°59'120.0
2018-Jun-14 16:00N 37°37' E 025°00'918.0
2018-Jun-14 15:30N 37°32' E 025°09'713.4
2018-Jun-14 15:00N 37°29' E 025°17'2 4.9
2018-Jun-14 14:30N 37°28' E 025°19'816.5
2018-Jun-14 14:00N 37°20' E 025°16'1120.2
2018-Jun-14 13:29N 37°11' E 025°10'7 9.6
2018-Jun-14 12:48N 37°05' E 025°06'4 0.2
2018-Jun-13 11:45N 37°03' E 025°02'6 9.0
2018-Jun-13 11:05N 37°07' E 025°08'519.5
2018-Jun-13 10:48N 37°12' E 025°11'620.0
2018-Jun-13 10:30N 37°17' E 025°14'1020.1
2018-Jun-13 10:00N 37°27' E 025°18'2 3.7
2018-Jun-13 09:31N 37°28' E 025°19'611.8
2018-Jun-13 08:59N 37°30' E 025°12'510.1
2018-Jun-13 08:30N 37°33' E 025°07'60 4.5
2018-Jun-12 19:08N 38°01' E 024°01'215.8
2018-Jun-12 19:00N 38°01' E 024°03'1220.2
2018-Jun-12 18:25N 37°57' E 024°18'4716.1
2018-Jun-12 15:32N 37°33' E 025°08'020.2
2018-Jun-12 15:30N 37°32' E 025°08'611.5
2018-Jun-12 15:01N 37°29' E 025°14'4 8.6
2018-Jun-12 14:30N 37°28' E 025°19'816.1
2018-Jun-12 14:00N 37°20' E 025°16'1420.1
2018-Jun-12 13:19N 37°08' E 025°09'3 7.2
2018-Jun-12 12:50N 37°05' E 025°06'4 0.2
2018-Jun-11 12:01N 37°03' E 025°02'5 7.6
2018-Jun-11 11:19N 37°06' E 025°07'618.0
2018-Jun-11 10:58N 37°11' E 025°11'817.9
2018-Jun-11 10:31N 37°19' E 025°15'917.8
2018-Jun-11 10:00N 37°27' E 025°19'1 2.9
2018-Jun-11 09:30N 37°28' E 025°17'714.7
2018-Jun-11 09:00N 37°32' E 025°09'510.4
2018-Jun-11 08:30N 37°35' E 025°04'1218.0
2018-Jun-11 07:50N 37°43' E 024°53'45 3.9
2018-Jun-10 20:23N 38°01' E 024°01'718.3
2018-Jun-10 20:00N 37°60' E 024°09'4711.6
2018-Jun-10 15:57N 37°37' E 025°01'817.6
2018-Jun-10 15:30N 37°32' E 025°09'510.0
2018-Jun-10 15:00N 37°29' E 025°15'4 7.6
2018-Jun-10 14:31N 37°28' E 025°19'2219.6
2018-Jun-10 13:24N 37°08' E 025°08'4 6.5
2018-Jun-10 12:51N 37°05' E 025°07'4 0.2
2018-Jun-09 12:04N 37°03' E 025°02'117.7
2018-Jun-09 12:00N 37°03' E 025°03'  

Dump ship's entire track history